Wetterdaten: aktuell Mittwoch, 18.09.2019 08:54
Datum Zeit Temp. A. Feuchte A. Luftdruck Regen Wind Richtung Richtung Windben
18.09.2019 08:54 16,1 C 67 % 1019,9 hPa 0,0 l/m 0,0 km/h NW 318 0,0 km/h
18.09.2019 08:50 15,2 C 73 % 1019,8 hPa 0,0 l/m 0,0 km/h O-SO 104 0,0 km/h
18.09.2019 08:45 15,0 C 71 % 1019,8 hPa 0,0 l/m 0,0 km/h O 94 0,0 km/h
18.09.2019 08:40 15,6 C 72 % 1019,6 hPa 0,0 l/m 0,0 km/h SO 129 0,0 km/h
18.09.2019 08:35 15,1 C 75 % 1019,7 hPa 0,0 l/m 0,0 km/h N-NW 340 0,0 km/h
18.09.2019 08:30 14,3 C 75 % 1019,6 hPa 0,0 l/m 0,0 km/h N-NW 340 0,0 km/h
18.09.2019 08:25 14,1 C 76 % 1019,6 hPa 0,0 l/m 0,0 km/h N-NW 340 0,0 km/h
18.09.2019 08:20 13,7 C 78 % 1019,6 hPa 0,0 l/m 0,0 km/h N 349 0,0 km/h
18.09.2019 08:15 13,8 C 76 % 1019,5 hPa 0,0 l/m 0,0 km/h N-NO 32 0,0 km/h
18.09.2019 08:14 13,8 C 76 % 1019,5 hPa 0,0 l/m 0,0 km/h N-NO 32 0,0 km/h
18.09.2019 08:10 13,3 C 78 % 1019,5 hPa 0,0 l/m 0,0 km/h N-NW 336 0,0 km/h
18.09.2019 08:05 12,8 C 79 % 1019,4 hPa 0,0 l/m 0,0 km/h N-NW 337 0,0 km/h
18.09.2019 08:00 12,3 C 80 % 1019,3 hPa 0,0 l/m 0,0 km/h N-NW 346 0,0 km/h
18.09.2019 07:55 12,0 C 79 % 1019,2 hPa 0,0 l/m 0,0 km/h N-NW 343 0,0 km/h
18.09.2019 07:49 11,9 C 80 % 1019,3 hPa 0,0 l/m 0,0 km/h N 7 0,0 km/h
18.09.2019 07:45 11,9 C 80 % 1019,2 hPa 0,0 l/m 0,0 km/h N 355 0,0 km/h
18.09.2019 07:39 11,8 C 79 % 1019,1 hPa 0,0 l/m 0,0 km/h N 358 0,0 km/h
18.09.2019 07:35 11,8 C 80 % 1019,0 hPa 0,0 l/m 0,0 km/h N-NW 333 0,0 km/h
18.09.2019 07:30 11,8 C 80 % 1019,0 hPa 0,0 l/m 0,0 km/h N 353 0,0 km/h
18.09.2019 07:25 11,7 C 80 % 1018,8 hPa 0,0 l/m 0,0 km/h N-NO 12 4,8 km/h
18.09.2019 07:20 11,5 C 79 % 1018,8 hPa 0,0 l/m 0,0 km/h N 349 0,0 km/h
18.09.2019 07:19 11,6 C 79 % 1018,8 hPa 0,0 l/m 0,0 km/h N 352 0,0 km/h
18.09.2019 07:15 11,6 C 79 % 1018,8 hPa 0,0 l/m 0,0 km/h N-NW 348 3,2 km/h
18.09.2019 07:09 11,6 C 79 % 1018,7 hPa 0,0 l/m 0,0 km/h N 355 0,0 km/h
18.09.2019 07:05 11,6 C 79 % 1018,6 hPa 0,0 l/m 0,0 km/h N-NW 348 0,0 km/h
18.09.2019 07:00 11,6 C 79 % 1018,5 hPa 0,0 l/m 0,0 km/h N-NW 348 0,0 km/h
18.09.2019 06:55 11,6 C 79 % 1018,5 hPa 0,0 l/m 0,0 km/h N 1 0,0 km/h
18.09.2019 06:50 11,7 C 79 % 1018,5 hPa 0,0 l/m 0,0 km/h NW 316 0,0 km/h
18.09.2019 06:45 11,9 C 79 % 1018,3 hPa 0,0 l/m 0,0 km/h O 90 0,0 km/h
18.09.2019 06:40 11,8 C 79 % 1018,2 hPa 0,0 l/m 0,0 km/h N-NW 339 0,0 km/h
18.09.2019 06:35 11,7 C 80 % 1018,0 hPa 0,0 l/m 0,0 km/h N-NO 12 0,0 km/h
18.09.2019 06:34 11,7 C 80 % 1018,1 hPa 0,0 l/m 0,0 km/h N-NO 12 0,0 km/h
18.09.2019 06:30 11,6 C 79 % 1018,0 hPa 0,0 l/m 0,0 km/h N-NW 343 0,0 km/h
18.09.2019 06:25 11,9 C 78 % 1017,9 hPa 0,0 l/m 0,0 km/h N 7 0,0 km/h
18.09.2019 06:20 12,2 C 78 % 1017,9 hPa 0,0 l/m 0,0 km/h NW 320 0,0 km/h
18.09.2019 06:15 12,3 C 78 % 1017,8 hPa 0,0 l/m 0,0 km/h NO 34 0,0 km/h
18.09.2019 06:14 12,3 C 78 % 1017,8 hPa 0,0 l/m 0,0 km/h NO 34 0,0 km/h
18.09.2019 06:10 12,3 C 78 % 1017,7 hPa 0,0 l/m 0,0 km/h N 354 0,0 km/h
18.09.2019 06:04 12,3 C 78 % 1017,6 hPa 0,0 l/m 0,0 km/h N-NW 336 0,0 km/h
18.09.2019 06:00 12,2 C 79 % 1017,6 hPa 0,0 l/m 0,0 km/h O 90 0,0 km/h
18.09.2019 05:59 12,2 C 79 % 1017,5 hPa 0,0 l/m 0,0 km/h O 90 0,0 km/h
18.09.2019 05:55 12,1 C 79 % 1017,5 hPa 0,0 l/m 0,5 km/h O 90 12,9 km/h
18.09.2019 05:50 12,0 C 79 % 1017,6 hPa 0,0 l/m 0,0 km/h N-NW 331 0,0 km/h
18.09.2019 05:49 11,9 C 79 % 1017,5 hPa 0,0 l/m 0,0 km/h N-NW 332 0,0 km/h
18.09.2019 05:45 12,1 C 79 % 1017,6 hPa 0,0 l/m 0,0 km/h N-NW 329 0,0 km/h
18.09.2019 05:40 12,3 C 80 % 1017,4 hPa 0,0 l/m 0,0 km/h N 353 1,6 km/h
18.09.2019 05:34 12,3 C 80 % 1017,3 hPa 0,0 l/m 0,0 km/h S-SO 160 0,0 km/h
18.09.2019 05:30 12,3 C 80 % 1017,4 hPa 0,0 l/m 0,0 km/h S-SO 160 0,0 km/h
18.09.2019 05:25 12,4 C 80 % 1017,3 hPa 0,0 l/m 0,0 km/h S-SO 161 0,0 km/h
18.09.2019 05:20 12,5 C 80 % 1017,1 hPa 0,0 l/m 0,0 km/h S-SO 158 0,0 km/h
18.09.2019 05:15 12,5 C 79 % 1017,1 hPa 0,0 l/m 0,0 km/h S-SO 158 0,0 km/h
18.09.2019 05:10 12,6 C 79 % 1017,0 hPa 0,0 l/m 0,0 km/h S-SO 158 0,0 km/h
18.09.2019 05:09 12,6 C 79 % 1017,0 hPa 0,0 l/m 0,0 km/h S-SO 158 0,0 km/h
18.09.2019 05:05 12,7 C 80 % 1016,9 hPa 0,0 l/m 0,0 km/h S-SO 158 0,0 km/h
18.09.2019 05:00 12,7 C 80 % 1016,9 hPa 0,0 l/m 0,0 km/h S-SO 158 0,0 km/h
18.09.2019 04:54 12,6 C 79 % 1016,7 hPa 0,0 l/m 0,0 km/h N-NW 327 0,0 km/h
18.09.2019 04:50 12,6 C 79 % 1016,7 hPa 0,0 l/m 0,0 km/h N-NW 327 0,0 km/h
18.09.2019 04:45 12,5 C 79 % 1016,6 hPa 0,0 l/m 0,0 km/h N-NW 327 0,0 km/h
18.09.2019 04:40 12,4 C 79 % 1016,5 hPa 0,0 l/m 0,0 km/h N 2 0,0 km/h
18.09.2019 04:35 12,4 C 79 % 1016,5 hPa 0,0 l/m 0,0 km/h N 358 0,0 km/h
18.09.2019 04:34 12,4 C 79 % 1016,5 hPa 0,0 l/m 0,0 km/h N-NW 338 3,2 km/h
18.09.2019 04:30 12,4 C 79 % 1016,4 hPa 0,0 l/m 0,0 km/h N-NW 331 1,6 km/h
18.09.2019 04:25 12,5 C 79 % 1016,5 hPa 0,0 l/m 0,0 km/h N 358 0,0 km/h
18.09.2019 04:24 12,5 C 79 % 1016,5 hPa 0,0 l/m 0,0 km/h N 352 0,0 km/h
18.09.2019 04:20 12,4 C 79 % 1016,4 hPa 0,0 l/m 0,0 km/h N-NW 348 1,6 km/h
18.09.2019 04:15 12,4 C 79 % 1016,4 hPa 0,0 l/m 0,1 km/h N-NW 348 3,2 km/h
18.09.2019 04:09 12,5 C 79 % 1016,4 hPa 0,0 l/m 0,0 km/h N 352 0,0 km/h
18.09.2019 04:05 12,6 C 79 % 1016,4 hPa 0,0 l/m 0,0 km/h N 352 0,0 km/h
18.09.2019 04:00 12,7 C 79 % 1016,3 hPa 0,0 l/m 0,0 km/h N-NW 341 0,0 km/h
18.09.2019 03:55 12,6 C 79 % 1016,2 hPa 0,0 l/m 0,0 km/h N-NW 331 0,0 km/h
18.09.2019 03:54 12,6 C 79 % 1016,2 hPa 0,0 l/m 0,1 km/h N-NW 331 4,8 km/h
18.09.2019 03:50 12,7 C 79 % 1016,2 hPa 0,0 l/m 0,0 km/h N 351 0,0 km/h
18.09.2019 03:45 12,8 C 79 % 1016,2 hPa 0,0 l/m 0,0 km/h N 357 0,0 km/h
18.09.2019 03:40 13,1 C 79 % 1016,1 hPa 0,0 l/m 0,0 km/h N 358 0,0 km/h
18.09.2019 03:39 13,2 C 79 % 1016,1 hPa 0,0 l/m 0,0 km/h N-NW 341 0,0 km/h
18.09.2019 03:35 13,4 C 78 % 1016,1 hPa 0,0 l/m 0,0 km/h N 1 0,0 km/h
18.09.2019 03:30 13,4 C 78 % 1016,1 hPa 0,0 l/m 0,0 km/h N 1 0,0 km/h
18.09.2019 03:25 13,4 C 79 % 1016,1 hPa 0,0 l/m 0,0 km/h NW 307 0,0 km/h
18.09.2019 03:20 13,3 C 79 % 1016,0 hPa 0,0 l/m 0,0 km/h N 358 0,0 km/h
18.09.2019 03:15 13,3 C 79 % 1016,0 hPa 0,0 l/m 0,0 km/h N 3 0,0 km/h
18.09.2019 03:10 13,3 C 78 % 1015,9 hPa 0,0 l/m 0,0 km/h N-NO 17 0,0 km/h
18.09.2019 03:05 13,1 C 79 % 1015,8 hPa 0,0 l/m 0,0 km/h N-NW 334 0,0 km/h
18.09.2019 03:00 13,1 C 78 % 1015,8 hPa 0,0 l/m 0,0 km/h N 350 0,0 km/h
18.09.2019 02:55 12,9 C 78 % 1015,7 hPa 0,0 l/m 0,0 km/h N-NW 333 0,0 km/h
18.09.2019 02:50 13,1 C 79 % 1015,7 hPa 0,0 l/m 0,0 km/h N 7 0,0 km/h
18.09.2019 02:45 13,2 C 78 % 1015,7 hPa 0,0 l/m 0,0 km/h N-NW 343 0,0 km/h
18.09.2019 02:44 13,2 C 78 % 1015,7 hPa 0,0 l/m 0,0 km/h N-NW 343 0,0 km/h
18.09.2019 02:40 13,2 C 78 % 1015,6 hPa 0,0 l/m 0,0 km/h N 353 0,0 km/h
18.09.2019 02:35 13,4 C 78 % 1015,6 hPa 0,0 l/m 0,0 km/h N 353 0,0 km/h
18.09.2019 02:30 13,4 C 77 % 1015,6 hPa 0,0 l/m 0,0 km/h N 354 0,0 km/h
18.09.2019 02:29 13,3 C 77 % 1015,6 hPa 0,0 l/m 0,0 km/h N 354 0,0 km/h
18.09.2019 02:25 13,3 C 78 % 1015,6 hPa 0,0 l/m 0,0 km/h N 350 0,0 km/h
18.09.2019 02:20 13,5 C 78 % 1015,6 hPa 0,0 l/m 0,0 km/h N 354 0,0 km/h
18.09.2019 02:14 13,7 C 77 % 1015,5 hPa 0,0 l/m 0,0 km/h NW 326 0,0 km/h
18.09.2019 02:10 13,6 C 77 % 1015,5 hPa 0,0 l/m 0,0 km/h N-NO 12 0,0 km/h
18.09.2019 02:09 13,5 C 77 % 1015,5 hPa 0,0 l/m 0,0 km/h N-NO 12 0,0 km/h
18.09.2019 02:05 13,7 C 77 % 1015,6 hPa 0,0 l/m 0,0 km/h N-NO 12 0,0 km/h
_ Min-Zeit 07:20 08:54 16:45 - 09:00 - - 09:00
Minimum _ 11,5 C 67 % 1012,2 hPa - 0,0 km/h - - 0,0 km/h
_ Max-Zeit 15:35 05:00 08:54 12:40 05:55 - - 05:55
Maximum _ 23,3 C 80 % 1019,9 hPa 1,0 l/m 0,5 km/h
O
- - 12,9 km/h
N-NW
Durchschnitt _ 17,3 C 77 % 1015,0 hPa #1,6 l/m 0,0 km/h N - 0,3 km/h